River Hills, Wisconsin
Current Conditions -  °F | °C
As of 11:15 PM on Monday 20 Oct 2014 (Local Time) from KMWC Reporting Station
Drizzle Drizzle  
Wind Chill:   Ceiling: 2600
Heat Index:   Visibility: 10mi
Dew Point:   Wind: 8mph
Humidity: 87%   Direction: 360°N
Pressure: 30.03"   Gusts: NA
Location:  43.1576°N, 87.9144°W
Report Text: KMWC 210415Z AUTO 36007KT 10SM DZ SCT019 BKN026 OVC031 08/06 A3003 RMK AO2
Loading
Personal Weather Stations






























Interactive Weather Map
Tropical Storm Tracking
New forecast layout! Learn more

10-Day Weather Forecast

Advertisements
Track Severe Weather on mobile